Wetterdaten: Woche 09.07.07 - 15.07.07 (KW28)
Datum Zeit Temperatur Luftfeuchte Luftdruck Niederschlag
09.07.2007 00:00 16,0 C 96 % 0 hPa 0,0 l/m
09.07.2007 01:00 16,2 C 97 % 0 hPa 0,0 l/m
09.07.2007 02:00 16,2 C 94 % 0 hPa 0,0 l/m
09.07.2007 03:00 15,9 C 94 % 0 hPa 0,0 l/m
09.07.2007 04:00 15,7 C 92 % 0 hPa 0,0 l/m
09.07.2007 05:00 15,7 C 91 % 0 hPa 0,0 l/m
09.07.2007 06:00 15,5 C 88 % 0 hPa 0,0 l/m
09.07.2007 07:00 15,3 C 89 % 0 hPa 0,0 l/m
09.07.2007 08:00 15,6 C 91 % 0 hPa 0,0 l/m
09.07.2007 09:00 16,7 C 84 % 0 hPa 0,0 l/m
09.07.2007 10:00 16,8 C 79 % 0 hPa 1,0 l/m
09.07.2007 11:00 15,3 C 84 % 0 hPa 2,0 l/m
09.07.2007 12:00 14,1 C 88 % 0 hPa 0,0 l/m
09.07.2007 13:00 13,7 C 89 % 0 hPa 1,0 l/m
09.07.2007 14:00 13,2 C 89 % 0 hPa 0,0 l/m
09.07.2007 15:00 13,8 C 91 % 0 hPa 0,0 l/m
09.07.2007 16:00 14,2 C 83 % 0 hPa 1,0 l/m
09.07.2007 17:00 13,6 C 87 % 0 hPa 0,0 l/m
09.07.2007 18:00 12,4 C 90 % 0 hPa 0,0 l/m
09.07.2007 19:00 11,8 C 93 % 0 hPa 1,0 l/m
09.07.2007 20:00 11,4 C 94 % 0 hPa 2,0 l/m
09.07.2007 21:00 11,1 C 95 % 0 hPa 0,0 l/m
09.07.2007 22:00 10,7 C 96 % 0 hPa 0,0 l/m
09.07.2007 23:00 10,6 C 97 % 0 hPa 0,0 l/m
10.07.2007 00:00 10,5 C 98 % 0 hPa 0,0 l/m
10.07.2007 01:00 10,3 C 97 % 0 hPa 0,0 l/m
10.07.2007 02:00 9,5 C 96 % 0 hPa 0,0 l/m
10.07.2007 03:00 9,4 C 96 % 0 hPa 0,0 l/m
10.07.2007 04:00 9,1 C 94 % 0 hPa 0,0 l/m
10.07.2007 05:00 8,7 C 94 % 0 hPa 0,0 l/m
10.07.2007 06:00 8,8 C 95 % 0 hPa 1,0 l/m
10.07.2007 07:00 9,3 C 96 % 0 hPa 0,0 l/m
10.07.2007 08:00 9,8 C 94 % 0 hPa 0,0 l/m
10.07.2007 09:00 10,9 C 84 % 0 hPa 0,0 l/m
10.07.2007 10:00 12,0 C 73 % 0 hPa 0,0 l/m
10.07.2007 11:00 11,2 C 76 % 0 hPa 4,0 l/m
10.07.2007 12:00 12,0 C 87 % 0 hPa 0,0 l/m
10.07.2007 13:00 11,0 C 77 % 0 hPa 7,0 l/m
10.07.2007 14:00 11,4 C 88 % 0 hPa 0,0 l/m
10.07.2007 15:00 12,6 C 83 % 0 hPa 0,0 l/m
10.07.2007 16:00 13,1 C 68 % 0 hPa 6,0 l/m
10.07.2007 17:00 11,3 C 85 % 0 hPa 1,0 l/m
10.07.2007 18:00 10,9 C 80 % 0 hPa 3,0 l/m
10.07.2007 19:00 9,2 C 87 % 0 hPa 3,0 l/m
10.07.2007 20:00 9,6 C 92 % 0 hPa 0,0 l/m
10.07.2007 21:00 9,5 C 93 % 0 hPa 0,0 l/m
10.07.2007 22:00 9,3 C 94 % 0 hPa 0,0 l/m
10.07.2007 23:00 8,7 C 95 % 0 hPa 0,0 l/m
11.07.2007 00:00 8,0 C 95 % 0 hPa 0,0 l/m
11.07.2007 01:00 7,4 C 96 % 0 hPa 0,0 l/m
11.07.2007 02:00 7,2 C 96 % 0 hPa 0,0 l/m
11.07.2007 03:00 7,9 C 97 % 0 hPa 0,0 l/m
11.07.2007 04:00 8,3 C 98 % 0 hPa 0,0 l/m
11.07.2007 05:00 8,0 C 98 % 0 hPa 0,0 l/m
11.07.2007 06:00 8,0 C 98 % 0 hPa 0,0 l/m
11.07.2007 07:00 9,7 C 98 % 0 hPa 0,0 l/m
11.07.2007 08:00 10,8 C 97 % 0 hPa 0,0 l/m
11.07.2007 09:00 12,5 C 82 % 0 hPa 0,0 l/m
11.07.2007 10:00 12,3 C 74 % 0 hPa 0,0 l/m
11.07.2007 11:00 13,4 C 67 % 0 hPa 0,0 l/m
11.07.2007 12:00 14,7 C 58 % 0 hPa 0,0 l/m
11.07.2007 13:00 15,6 C 53 % 0 hPa 0,0 l/m
11.07.2007 14:00 15,6 C 56 % 0 hPa 0,0 l/m
11.07.2007 15:00 14,9 C 60 % 0 hPa 0,0 l/m
11.07.2007 16:00 14,7 C 69 % 0 hPa 0,0 l/m
11.07.2007 17:00 15,6 C 61 % 0 hPa 0,0 l/m
11.07.2007 18:00 15,5 C 60 % 0 hPa 0,0 l/m
11.07.2007 19:00 14,1 C 65 % 0 hPa 0,0 l/m
11.07.2007 20:00 12,9 C 72 % 0 hPa 0,0 l/m
11.07.2007 21:00 12,0 C 81 % 0 hPa 0,0 l/m
11.07.2007 22:00 11,7 C 86 % 0 hPa 0,0 l/m
11.07.2007 23:00 11,7 C 89 % 0 hPa 0,0 l/m
12.07.2007 00:00 11,8 C 90 % 0 hPa 0,0 l/m
12.07.2007 01:00 11,8 C 88 % 0 hPa 0,0 l/m
12.07.2007 02:00 11,6 C 90 % 0 hPa 1,0 l/m
12.07.2007 03:00 11,3 C 93 % 0 hPa 2,0 l/m
12.07.2007 04:00 11,1 C 94 % 0 hPa 0,0 l/m
12.07.2007 05:00 11,1 C 95 % 0 hPa 1,0 l/m
12.07.2007 06:00 11,0 C 96 % 0 hPa 0,0 l/m
12.07.2007 07:00 11,3 C 97 % 0 hPa 0,0 l/m
12.07.2007 08:00 12,1 C 97 % 0 hPa 0,0 l/m
12.07.2007 09:00 13,0 C 92 % 0 hPa 0,0 l/m
12.07.2007 10:00 14,0 C 80 % 0 hPa 0,0 l/m
12.07.2007 11:00 15,9 C 62 % 0 hPa 0,0 l/m
12.07.2007 12:00 15,3 C 62 % 0 hPa 0,0 l/m
12.07.2007 13:00 15,6 C 63 % 0 hPa 0,0 l/m
12.07.2007 14:00 17,3 C 55 % 0 hPa 0,0 l/m
12.07.2007 15:00 18,0 C 46 % 0 hPa 0,0 l/m
12.07.2007 16:00 17,6 C 48 % 0 hPa 0,0 l/m
12.07.2007 17:00 19,1 C 45 % 0 hPa 0,0 l/m
12.07.2007 18:00 18,7 C 46 % 0 hPa 0,0 l/m
12.07.2007 19:00 17,8 C 50 % 0 hPa 0,0 l/m
12.07.2007 20:00 17,3 C 55 % 0 hPa 0,0 l/m
12.07.2007 21:00 16,0 C 63 % 0 hPa 0,0 l/m
12.07.2007 22:00 14,6 C 68 % 0 hPa 0,0 l/m
12.07.2007 23:00 13,7 C 70 % 0 hPa 0,0 l/m
13.07.2007 00:00 12,2 C 78 % 0 hPa 0,0 l/m
13.07.2007 01:00 11,9 C 83 % 0 hPa 0,0 l/m
13.07.2007 02:00 12,4 C 84 % 0 hPa 0,0 l/m
13.07.2007 03:00 12,7 C 84 % 0 hPa 0,0 l/m
13.07.2007 04:00 12,8 C 84 % 0 hPa 0,0 l/m
13.07.2007 05:00 12,8 C 86 % 0 hPa 0,0 l/m
13.07.2007 06:00 13,0 C 88 % 0 hPa 0,0 l/m
13.07.2007 07:00 13,8 C 85 % 0 hPa 0,0 l/m
13.07.2007 08:00 15,0 C 80 % 0 hPa 0,0 l/m
13.07.2007 09:00 17,5 C 68 % 0 hPa 0,0 l/m
13.07.2007 10:00 20,1 C 54 % 0 hPa 0,0 l/m
13.07.2007 11:00 21,7 C 45 % 0 hPa 0,0 l/m
13.07.2007 12:00 23,0 C 42 % 0 hPa 0,0 l/m
13.07.2007 13:00 24,7 C 37 % 0 hPa 0,0 l/m
13.07.2007 14:00 25,4 C 35 % 0 hPa 0,0 l/m
13.07.2007 15:00 26,2 C 33 % 0 hPa 0,0 l/m
13.07.2007 16:00 26,9 C 32 % 0 hPa 0,0 l/m
13.07.2007 17:00 27,5 C 31 % 0 hPa 0,0 l/m
13.07.2007 18:00 27,7 C 30 % 0 hPa 0,0 l/m
13.07.2007 19:00 26,7 C 32 % 0 hPa 0,0 l/m
13.07.2007 20:00 24,0 C 43 % 0 hPa 0,0 l/m
13.07.2007 21:00 20,9 C 56 % 0 hPa 0,0 l/m
13.07.2007 22:00 18,5 C 62 % 0 hPa 0,0 l/m
13.07.2007 23:00 16,9 C 70 % 0 hPa 0,0 l/m
14.07.2007 00:00 15,7 C 78 % 0 hPa 0,0 l/m
14.07.2007 01:00 14,8 C 82 % 0 hPa 0,0 l/m
14.07.2007 02:00 14,1 C 86 % 0 hPa 0,0 l/m
14.07.2007 03:00 13,5 C 89 % 0 hPa 0,0 l/m
14.07.2007 04:00 13,0 C 91 % 0 hPa 0,0 l/m
14.07.2007 05:00 12,5 C 93 % 0 hPa 0,0 l/m
14.07.2007 06:00 12,4 C 94 % 0 hPa 0,0 l/m
14.07.2007 07:00 14,7 C 92 % 0 hPa 0,0 l/m
14.07.2007 08:00 18,6 C 77 % 0 hPa 0,0 l/m
14.07.2007 09:00 21,9 C 58 % 0 hPa 0,0 l/m
14.07.2007 10:00 24,5 C 50 % 0 hPa 0,0 l/m
14.07.2007 11:00 26,3 C 40 % 0 hPa 0,0 l/m
14.07.2007 12:00 27,5 C 28 % 0 hPa 0,0 l/m
14.07.2007 13:00 28,4 C 23 % 0 hPa 0,0 l/m
14.07.2007 14:00 29,4 C 22 % 0 hPa 0,0 l/m
14.07.2007 15:00 29,9 C 22 % 0 hPa 0,0 l/m
14.07.2007 16:00 30,2 C 22 % 0 hPa 0,0 l/m
14.07.2007 17:00 30,6 C 23 % 0 hPa 0,0 l/m
14.07.2007 18:00 30,6 C 23 % 0 hPa 0,0 l/m
14.07.2007 19:00 29,0 C 26 % 0 hPa 0,0 l/m
14.07.2007 20:00 26,0 C 37 % 0 hPa 0,0 l/m
14.07.2007 21:00 22,6 C 48 % 0 hPa 0,0 l/m
14.07.2007 22:00 20,4 C 55 % 0 hPa 0,0 l/m
14.07.2007 23:00 19,0 C 63 % 0 hPa 0,0 l/m
15.07.2007 00:00 17,8 C 69 % 0 hPa 0,0 l/m
15.07.2007 01:00 16,9 C 76 % 0 hPa 0,0 l/m
15.07.2007 02:00 16,2 C 80 % 0 hPa 0,0 l/m
15.07.2007 03:00 15,8 C 82 % 0 hPa 0,0 l/m
15.07.2007 04:00 15,0 C 83 % 0 hPa 0,0 l/m
15.07.2007 05:00 14,4 C 86 % 0 hPa 0,0 l/m
15.07.2007 06:00 14,4 C 89 % 0 hPa 0,0 l/m
15.07.2007 07:00 16,9 C 86 % 0 hPa 0,0 l/m
15.07.2007 08:00 20,0 C 72 % 0 hPa 0,0 l/m
15.07.2007 09:00 24,2 C 51 % 0 hPa 0,0 l/m
15.07.2007 10:00 27,8 C 37 % 0 hPa 0,0 l/m
15.07.2007 11:00 29,9 C 33 % 0 hPa 0,0 l/m
15.07.2007 12:00 31,4 C 27 % 0 hPa 0,0 l/m
15.07.2007 13:00 32,1 C 25 % 0 hPa 0,0 l/m
15.07.2007 14:00 33,0 C 21 % 0 hPa 0,0 l/m
15.07.2007 15:00 33,8 C 19 % 0 hPa 0,0 l/m
15.07.2007 16:00 34,4 C 18 % 0 hPa 0,0 l/m
15.07.2007 17:00 34,5 C 18 % 0 hPa 0,0 l/m
15.07.2007 18:00 34,6 C 17 % 0 hPa 0,0 l/m
15.07.2007 19:00 33,0 C 26 % 0 hPa 0,0 l/m
15.07.2007 20:00 28,1 C 38 % 0 hPa 0,0 l/m
15.07.2007 21:00 24,2 C 40 % 0 hPa 0,0 l/m
15.07.2007 22:00 21,8 C 47 % 0 hPa 0,0 l/m
15.07.2007 23:00 20,3 C 53 % 0 hPa 0,0 l/m
Min-Datum _ 11.07.07 15.07.07 09.07.07 -
_ Min-Zeit 02:12 16:56 00:00 -
Minimum _ 7,0 C 17 % 0 hPa -
Max-Datum _ 15.07.07 09.07.07 09.07.07 10.07.07
_ Max-Zeit 16:31 23:56 00:00 13:22
Maximum _ 34,6 C 98 % 0 hPa 7,0 l/m
Durchschnitt _ 16,7 C 71 % 0 hPa #37,0 l/m

Durchschnitt Minimum Temp.16,1 C
Durchschnitt Maximum Temp.17,2 C